createdAt,value
2019-05-23T00:00:46.314Z,14.98
2019-05-23T00:03:37.162Z,13.60
2019-05-23T00:06:30.791Z,13.38
2019-05-23T00:09:17.183Z,13.40
2019-05-23T00:11:46.902Z,13.45
2019-05-23T00:14:20.182Z,12.95
2019-05-23T00:16:48.607Z,13.03
2019-05-23T00:19:18.051Z,12.98
2019-05-23T00:21:46.735Z,11.85
2019-05-23T00:24:14.881Z,12.75
2019-05-23T00:26:44.793Z,12.10
2019-05-23T00:29:14.288Z,12.68
2019-05-23T00:31:44.486Z,12.30
2019-05-23T00:34:14.544Z,12.60
2019-05-23T00:36:43.769Z,12.23
2019-05-23T00:39:14.786Z,11.88
2019-05-23T00:41:43.093Z,11.15
2019-05-23T00:44:11.916Z,12.07
2019-05-23T00:46:41.081Z,10.87
2019-05-23T00:49:09.710Z,11.68
2019-05-23T00:51:38.119Z,11.73
2019-05-23T00:54:07.223Z,11.12
2019-05-23T00:56:37.252Z,14.53
2019-05-23T00:59:07.110Z,12.00
2019-05-23T01:01:37.871Z,12.80
2019-05-23T01:04:07.787Z,12.30
2019-05-23T01:06:36.550Z,12.73
2019-05-23T01:09:07.973Z,11.88
2019-05-23T01:11:37.895Z,13.03
2019-05-23T01:14:06.208Z,11.35
2019-05-23T01:16:35.635Z,11.17
2019-05-23T01:19:04.429Z,12.03
2019-05-23T01:21:37.349Z,11.68
2019-05-23T01:24:07.203Z,13.15
2019-05-23T01:26:36.829Z,14.70
2019-05-23T01:29:06.098Z,15.35
2019-05-23T01:31:38.749Z,16.07
2019-05-23T01:34:09.247Z,16.73
2019-05-23T01:36:38.101Z,16.27
2019-05-23T01:39:07.370Z,17.37
2019-05-23T01:41:37.741Z,19.57
2019-05-23T01:44:06.663Z,18.15
2019-05-23T01:46:34.856Z,18.87
2019-05-23T01:49:03.328Z,18.23
2019-05-23T01:51:34.853Z,18.92
2019-05-23T01:54:03.355Z,19.55
2019-05-23T01:56:31.565Z,18.92
2019-05-23T01:59:00.135Z,19.80
2019-05-23T02:01:28.423Z,21.42
2019-05-23T02:03:56.751Z,21.20
2019-05-23T02:06:26.287Z,21.50
2019-05-23T02:08:54.455Z,20.03
2019-05-23T02:11:24.312Z,21.10
2019-05-23T02:13:52.904Z,20.43
2019-05-23T02:16:21.323Z,19.57
2019-05-23T02:18:49.537Z,18.75
2019-05-23T02:21:18.714Z,21.52
2019-05-23T02:23:47.305Z,17.65
2019-05-23T02:26:16.070Z,19.55
2019-05-23T02:28:46.127Z,17.77
2019-05-23T02:31:14.357Z,18.70
2019-05-23T02:33:42.830Z,19.50
2019-05-23T02:36:11.628Z,20.27
2019-05-23T02:38:50.544Z,21.05
2019-05-23T02:41:20.733Z,19.52
2019-05-23T02:43:50.685Z,17.35
2019-05-23T02:46:29.317Z,16.95
2019-05-23T02:49:00.345Z,21.12
2019-05-23T02:51:30.431Z,20.02
2019-05-23T02:54:01.930Z,20.92
2019-05-23T02:56:31.771Z,19.87
2019-05-23T02:59:08.340Z,19.20
2019-05-23T03:01:55.183Z,20.05
2019-05-23T03:04:25.059Z,19.52
2019-05-23T03:06:56.241Z,20.10
2019-05-23T03:09:27.205Z,21.25
2019-05-23T03:11:57.023Z,21.65
2019-05-23T03:14:26.994Z,20.37
2019-05-23T03:16:58.384Z,20.15
2019-05-23T03:19:29.054Z,20.60
2019-05-23T03:21:58.796Z,19.27
2019-05-23T03:24:28.802Z,20.60
2019-05-23T03:27:00.099Z,21.10
2019-05-23T03:29:30.539Z,21.20
2019-05-23T03:32:01.806Z,20.60
2019-05-23T03:34:31.643Z,21.35
2019-05-23T03:37:00.882Z,22.10
2019-05-23T03:39:31.325Z,21.73
2019-05-23T03:41:59.819Z,20.50
2019-05-23T03:44:29.018Z,18.42
2019-05-23T03:46:57.651Z,18.65
2019-05-23T03:49:27.496Z,18.87
2019-05-23T03:51:58.327Z,18.45
2019-05-23T03:54:28.071Z,18.50
2019-05-23T03:56:57.923Z,17.55
2019-05-23T03:59:28.968Z,17.32
2019-05-23T04:01:59.116Z,19.30
2019-05-23T04:04:28.965Z,17.25
2019-05-23T04:07:01.948Z,16.45
2019-05-23T04:09:30.315Z,17.45
2019-05-23T04:13:00.734Z,16.07
2019-05-23T04:15:33.006Z,16.87
2019-05-23T04:18:01.319Z,19.15
2019-05-23T04:20:30.924Z,14.97
2019-05-23T04:23:01.168Z,15.20
2019-05-23T04:25:29.335Z,18.65
2019-05-23T04:27:58.360Z,17.07
2019-05-23T04:30:26.548Z,17.70
2019-05-23T04:32:54.795Z,16.60
2019-05-23T04:35:24.068Z,16.93
2019-05-23T04:37:52.628Z,17.30
2019-05-23T04:40:22.531Z,18.60
2019-05-23T04:42:50.708Z,17.30
2019-05-23T04:45:19.455Z,17.62
2019-05-23T04:47:48.045Z,18.12
2019-05-23T04:50:16.949Z,18.92
2019-05-23T04:52:45.879Z,19.77
2019-05-23T04:55:16.878Z,19.57
2019-05-23T04:57:45.515Z,19.67
2019-05-23T05:00:16.828Z,21.90
2019-05-23T05:02:47.091Z,22.32
2019-05-23T05:05:19.092Z,23.20
2019-05-23T05:07:55.029Z,22.43
2019-05-23T05:10:23.795Z,25.00
2019-05-23T05:12:59.799Z,23.95
2019-05-23T05:15:35.926Z,24.25
2019-05-23T05:18:06.333Z,24.75
2019-05-23T05:20:37.439Z,25.08
2019-05-23T05:23:07.180Z,27.07
2019-05-23T05:31:39.097Z,28.17
2019-05-23T05:34:19.856Z,27.90
2019-05-23T05:37:01.235Z,28.87
2019-05-23T05:39:29.912Z,27.82
2019-05-23T05:41:58.958Z,27.00
2019-05-23T05:44:27.430Z,27.00
2019-05-23T05:47:02.690Z,29.07
2019-05-23T05:49:30.890Z,26.80
2019-05-23T05:52:04.039Z,28.15
2019-05-23T05:54:32.927Z,27.80
2019-05-23T05:57:04.257Z,28.15
2019-05-23T05:59:36.908Z,25.92
2019-05-23T06:02:11.851Z,27.05
2019-05-23T06:04:40.107Z,28.00
2019-05-23T06:07:38.804Z,28.25
2019-05-23T06:10:10.611Z,26.57
2019-05-23T06:12:39.100Z,27.10
2019-05-23T06:15:10.649Z,28.00
2019-05-23T06:17:40.414Z,27.83
2019-05-23T06:20:13.133Z,28.27
2019-05-23T06:22:42.191Z,27.55
2019-05-23T06:25:11.269Z,29.23
2019-05-23T06:28:12.919Z,28.80
2019-05-23T06:31:05.357Z,29.77
2019-05-23T06:33:52.197Z,28.95
2019-05-23T06:36:20.992Z,28.95
2019-05-23T06:38:59.476Z,25.72
2019-05-23T06:41:32.739Z,27.52
2019-05-23T06:44:01.346Z,29.48
2019-05-23T06:46:33.538Z,29.12
2019-05-23T06:49:04.229Z,26.97
2019-05-23T06:51:47.442Z,26.93
2019-05-23T06:54:15.810Z,24.40
2019-05-23T06:56:49.161Z,24.98
2019-05-23T06:59:18.125Z,25.32
2019-05-23T07:01:46.519Z,25.45
2019-05-23T07:04:25.848Z,25.57
2019-05-23T07:07:15.629Z,26.17
2019-05-23T07:09:50.191Z,23.42
2019-05-23T07:15:42.998Z,24.52
2019-05-23T07:18:49.912Z,26.20
2019-05-23T07:21:28.683Z,25.27
2019-05-23T07:24:04.315Z,24.37
2019-05-23T07:26:30.239Z,24.65
2019-05-23T07:29:14.679Z,24.35
2019-05-23T07:31:44.673Z,23.90
2019-05-23T07:34:13.439Z,22.65
2019-05-23T07:36:52.716Z,22.98
2019-05-23T07:39:24.306Z,22.30
2019-05-23T07:42:04.694Z,23.45
2019-05-23T07:44:48.734Z,22.55
2019-05-23T07:49:48.252Z,20.45
2019-05-23T07:52:16.731Z,20.48
2019-05-23T07:54:46.521Z,20.92
2019-05-23T07:57:15.762Z,20.53
2019-05-23T07:59:45.415Z,20.12
2019-05-23T08:02:16.706Z,19.17
2019-05-23T08:04:45.863Z,19.55
2019-05-23T08:07:15.671Z,19.80
2019-05-23T08:09:45.290Z,16.50
2019-05-23T08:12:13.441Z,16.05
2019-05-23T08:14:41.561Z,17.10
2019-05-23T08:17:10.226Z,17.27
2019-05-23T08:19:49.215Z,15.32
2019-05-23T08:22:08.098Z,15.08
2019-05-23T08:24:36.429Z,15.32
2019-05-23T08:27:06.133Z,14.23
2019-05-23T08:29:35.105Z,14.40
2019-05-23T08:32:04.552Z,14.15
2019-05-23T08:34:41.574Z,15.80
2019-05-23T08:37:02.672Z,16.45
2019-05-23T08:39:32.331Z,17.40
2019-05-23T08:42:00.505Z,15.72
2019-05-23T08:44:28.701Z,16.97
2019-05-23T08:46:57.333Z,15.58
2019-05-23T08:49:25.721Z,15.98
2019-05-23T08:51:55.353Z,15.90
2019-05-23T08:54:23.516Z,15.03
2019-05-23T08:56:51.579Z,17.87
2019-05-23T08:59:19.879Z,17.05
2019-05-23T09:01:48.388Z,16.07
2019-05-23T09:04:17.770Z,17.48
2019-05-23T09:06:46.202Z,16.48
2019-05-23T09:09:29.287Z,16.45
2019-05-23T09:11:45.175Z,15.28
2019-05-23T09:14:13.423Z,15.38
2019-05-23T09:16:43.099Z,16.82
2019-05-23T09:19:11.199Z,15.75
2019-05-23T09:21:39.395Z,16.80
2019-05-23T09:24:07.546Z,16.42
2019-05-23T09:26:35.710Z,16.10
2019-05-23T09:29:06.002Z,16.20
2019-05-23T09:31:36.348Z,17.00
2019-05-23T09:34:04.713Z,15.75
2019-05-23T09:36:32.974Z,16.83
2019-05-23T09:39:01.266Z,17.77
2019-05-23T09:41:30.438Z,16.62
2019-05-23T09:43:58.772Z,15.98
2019-05-23T09:46:26.965Z,15.65
2019-05-23T09:48:55.157Z,17.32
2019-05-23T09:51:25.044Z,15.20
2019-05-23T09:53:54.393Z,16.07
2019-05-23T09:56:22.621Z,16.37
2019-05-23T09:58:51.001Z,16.10
2019-05-23T10:01:19.109Z,16.03
2019-05-23T10:03:47.673Z,14.63
2019-05-23T10:06:16.103Z,15.28
2019-05-23T10:08:44.241Z,16.32
2019-05-23T10:11:12.403Z,14.30
2019-05-23T10:13:40.518Z,16.43
2019-05-23T10:16:09.355Z,15.08
2019-05-23T10:18:37.938Z,15.32
2019-05-23T10:21:08.922Z,15.83
2019-05-23T10:23:38.091Z,15.25
2019-05-23T10:26:06.593Z,15.10
2019-05-23T10:28:34.721Z,15.30
2019-05-23T10:31:04.169Z,14.55
2019-05-23T10:33:32.382Z,16.37
2019-05-23T10:36:01.383Z,15.00
2019-05-23T10:38:29.754Z,18.07
2019-05-23T10:40:58.328Z,15.13
2019-05-23T10:43:26.444Z,15.20
2019-05-23T10:45:54.543Z,17.57
2019-05-23T10:48:23.397Z,15.10
2019-05-23T10:50:52.253Z,17.00
2019-05-23T10:53:21.135Z,16.67
2019-05-23T10:55:49.317Z,15.80
2019-05-23T10:58:17.934Z,16.52
2019-05-23T11:00:47.240Z,15.40
2019-05-23T11:03:15.968Z,16.60
2019-05-23T11:05:44.178Z,15.23
2019-05-23T11:08:12.747Z,12.55
2019-05-23T11:10:41.596Z,12.78
2019-05-23T11:13:09.915Z,12.80
2019-05-23T11:15:39.250Z,11.05
2019-05-23T11:18:08.440Z,11.57
2019-05-23T11:20:36.629Z,10.00
2019-05-23T11:23:05.141Z,9.67
2019-05-23T11:25:34.396Z,10.10
2019-05-23T11:28:02.672Z,13.00
2019-05-23T11:30:38.651Z,9.60
2019-05-23T11:33:07.102Z,9.90
2019-05-23T11:35:35.385Z,8.53
2019-05-23T11:38:03.826Z,8.25
2019-05-23T11:40:33.798Z,7.55
2019-05-23T11:43:02.283Z,8.07
2019-05-23T11:45:32.316Z,7.03
2019-05-23T11:48:00.906Z,9.35
2019-05-23T11:50:29.443Z,7.50
2019-05-23T11:52:57.841Z,7.30
2019-05-23T11:55:27.140Z,8.63
2019-05-23T11:57:55.292Z,7.28
2019-05-23T12:00:42.886Z,6.65
2019-05-23T12:03:11.083Z,6.58
2019-05-23T12:05:39.219Z,7.60
2019-05-23T12:08:07.813Z,6.62
2019-05-23T12:10:36.010Z,6.47
2019-05-23T12:13:04.602Z,6.03
2019-05-23T12:15:34.372Z,6.85
2019-05-23T12:18:02.577Z,6.12
2019-05-23T12:20:30.841Z,6.40
2019-05-23T12:22:59.069Z,6.57
2019-05-23T12:25:28.309Z,5.57
2019-05-23T12:27:57.347Z,6.20
2019-05-23T12:30:25.628Z,8.23
2019-05-23T12:32:53.772Z,7.90
2019-05-23T12:35:21.953Z,6.60
2019-05-23T12:37:50.036Z,5.70
2019-05-23T12:40:18.776Z,5.87
2019-05-23T12:42:46.935Z,6.78
2019-05-23T12:45:15.441Z,6.17
2019-05-23T12:47:45.157Z,6.00
2019-05-23T12:50:24.108Z,5.22
2019-05-23T12:52:52.525Z,5.17
2019-05-23T12:55:20.683Z,5.83
2019-05-23T12:57:48.839Z,5.87
2019-05-23T13:00:21.647Z,5.90
2019-05-23T13:02:50.284Z,4.40
2019-05-23T13:05:18.922Z,5.17
2019-05-23T13:07:47.261Z,4.20
2019-05-23T13:10:15.559Z,4.47
2019-05-23T13:12:43.873Z,4.50
2019-05-23T13:15:12.624Z,4.13
2019-05-23T13:17:40.879Z,3.83
2019-05-23T13:20:09.122Z,4.03
2019-05-23T13:22:37.255Z,4.80
2019-05-23T13:25:07.737Z,4.42
2019-05-23T13:27:36.094Z,4.10
2019-05-23T13:30:05.791Z,5.28
2019-05-23T13:32:34.781Z,3.70
2019-05-23T13:35:03.653Z,4.22
2019-05-23T13:37:31.806Z,3.42
2019-05-23T13:40:00.120Z,3.62
2019-05-23T13:42:28.324Z,3.47
2019-05-23T13:44:56.650Z,2.90
2019-05-23T13:47:25.176Z,2.98
2019-05-23T13:49:53.384Z,2.87
2019-05-23T13:52:21.590Z,4.47
2019-05-23T13:54:49.708Z,3.67
2019-05-23T13:57:18.268Z,3.02
2019-05-23T13:59:46.473Z,3.17
2019-05-23T14:02:14.828Z,3.72
2019-05-23T14:04:43.016Z,3.12
2019-05-23T14:07:13.078Z,3.45
2019-05-23T14:09:41.657Z,3.30
2019-05-23T14:12:25.312Z,2.00
2019-05-23T14:14:39.634Z,3.40
2019-05-23T14:17:27.688Z,4.23
2019-05-23T14:19:55.863Z,1.75
2019-05-23T14:22:24.205Z,3.25
2019-05-23T14:24:52.351Z,2.90
2019-05-23T14:27:34.436Z,3.55
2019-05-23T14:30:10.727Z,2.85
2019-05-23T14:32:45.243Z,3.17
2019-05-23T14:35:15.075Z,4.08
2019-05-23T14:37:44.911Z,3.50
2019-05-23T14:40:13.250Z,3.40
2019-05-23T14:43:01.314Z,2.77
2019-05-23T14:45:33.885Z,5.28
2019-05-23T14:48:03.841Z,2.20
2019-05-23T14:50:49.064Z,1.90
2019-05-23T14:53:18.903Z,2.95
2019-05-23T14:55:48.654Z,4.77
2019-05-23T14:58:17.277Z,3.80
2019-05-23T15:00:47.136Z,4.90
2019-05-23T15:03:15.473Z,4.33
2019-05-23T15:05:43.758Z,4.37
2019-05-23T15:08:12.191Z,6.10
2019-05-23T15:10:40.503Z,4.50
2019-05-23T15:13:08.730Z,6.22
2019-05-23T15:15:36.987Z,4.97
2019-05-23T15:18:05.350Z,6.40
2019-05-23T15:20:33.738Z,5.33
2019-05-23T15:23:02.021Z,5.72
2019-05-23T15:25:30.218Z,4.65
2019-05-23T15:27:58.296Z,6.62
2019-05-23T15:30:26.497Z,5.37
2019-05-23T15:32:54.666Z,5.65
2019-05-23T15:35:22.959Z,5.37
2019-05-23T15:37:51.122Z,5.00
2019-05-23T15:40:19.778Z,5.90
2019-05-23T15:42:47.923Z,5.12
2019-05-23T15:45:16.135Z,5.03
2019-05-23T15:47:44.311Z,3.98
2019-05-23T15:50:18.977Z,7.35
2019-05-23T15:52:51.731Z,4.00
2019-05-23T15:55:27.510Z,3.05
2019-05-23T15:58:00.014Z,4.10
2019-05-23T16:00:29.815Z,4.33
2019-05-23T16:03:00.750Z,4.12
2019-05-23T16:05:29.251Z,4.78
2019-05-23T16:07:57.604Z,5.62
2019-05-23T16:10:27.192Z,5.53
2019-05-23T16:12:55.490Z,6.07
2019-05-23T16:15:24.364Z,6.40
2019-05-23T16:17:52.501Z,5.28
2019-05-23T16:20:20.968Z,5.50
2019-05-23T16:22:49.055Z,5.28
2019-05-23T16:25:18.079Z,8.48
2019-05-23T16:27:46.221Z,6.42
2019-05-23T16:30:14.434Z,5.83
2019-05-23T16:32:45.963Z,5.40
2019-05-23T16:35:12.412Z,5.67
2019-05-23T16:37:40.538Z,5.22
2019-05-23T16:40:08.713Z,6.85
2019-05-23T16:42:36.870Z,6.58
2019-05-23T16:45:06.614Z,7.10
2019-05-23T16:47:34.836Z,6.47
2019-05-23T16:50:04.855Z,7.70
2019-05-23T16:52:33.473Z,8.18
2019-05-23T16:55:05.065Z,6.80
2019-05-23T16:57:39.112Z,6.87
2019-05-23T17:00:26.445Z,5.97
2019-05-23T17:02:56.423Z,7.60
2019-05-23T17:05:29.820Z,6.20
2019-05-23T17:08:05.523Z,6.90
2019-05-23T17:10:35.349Z,9.48
2019-05-23T17:13:06.564Z,6.00
2019-05-23T17:15:51.769Z,7.72
2019-05-23T17:18:21.677Z,7.30
2019-05-23T17:20:57.338Z,5.35
2019-05-23T17:23:33.370Z,6.33
2019-05-23T17:26:06.043Z,5.62
2019-05-23T17:28:38.675Z,4.85
2019-05-23T17:31:08.497Z,4.40
2019-05-23T17:33:37.307Z,7.20
2019-05-23T17:36:05.640Z,6.00
2019-05-23T17:38:33.811Z,7.00
2019-05-23T17:41:03.789Z,6.08
2019-05-23T17:43:34.133Z,5.50
2019-05-23T17:46:02.311Z,5.35
2019-05-23T17:48:30.475Z,5.60
2019-05-23T17:50:58.546Z,6.95
2019-05-23T17:53:27.193Z,6.08
2019-05-23T17:55:57.243Z,6.47
2019-05-23T17:58:25.838Z,6.60
2019-05-23T18:00:54.407Z,7.10
2019-05-23T18:03:23.114Z,6.45
2019-05-23T18:05:51.725Z,6.65
2019-05-23T18:08:20.532Z,6.57
2019-05-23T18:10:48.708Z,6.85
2019-05-23T18:13:18.140Z,6.12
2019-05-23T18:15:46.324Z,6.67
2019-05-23T18:18:15.230Z,7.15
2019-05-23T18:20:44.090Z,6.87
2019-05-23T18:23:12.734Z,6.40
2019-05-23T18:25:41.924Z,6.67
2019-05-23T18:28:10.647Z,7.22
2019-05-23T18:30:46.602Z,5.95
2019-05-23T18:33:16.624Z,6.47
2019-05-23T18:35:44.921Z,7.42
2019-05-23T18:38:13.364Z,6.40
2019-05-23T18:40:41.827Z,8.23
2019-05-23T18:43:10.359Z,7.37
2019-05-23T18:45:38.534Z,6.90
2019-05-23T18:48:07.951Z,6.62
2019-05-23T18:50:36.205Z,8.73
2019-05-23T18:53:04.886Z,7.92
2019-05-23T18:55:33.979Z,7.17
2019-05-23T18:58:02.165Z,8.80
2019-05-23T19:00:48.748Z,7.35
2019-05-23T19:03:17.181Z,9.48
2019-05-23T19:05:46.428Z,8.70
2019-05-23T19:08:14.671Z,8.03
2019-05-23T19:10:43.114Z,7.35
2019-05-23T19:13:11.520Z,9.88
2019-05-23T19:15:39.807Z,8.68
2019-05-23T19:18:08.333Z,9.13
2019-05-23T19:20:37.097Z,9.40
2019-05-23T19:23:05.709Z,8.15
2019-05-23T19:25:34.790Z,10.15
2019-05-23T19:28:02.974Z,9.25
2019-05-23T19:30:31.400Z,9.83
2019-05-23T19:32:59.563Z,10.53
2019-05-23T19:35:27.715Z,10.70
2019-05-23T19:37:55.982Z,13.10
2019-05-23T19:40:25.150Z,10.98
2019-05-23T19:42:53.384Z,10.55
2019-05-23T19:45:21.549Z,9.73
2019-05-23T19:47:49.656Z,9.53
2019-05-23T19:50:18.306Z,8.73
2019-05-23T19:52:46.547Z,9.70
2019-05-23T19:55:14.766Z,9.73
2019-05-23T19:57:43.202Z,10.70
2019-05-23T20:00:19.108Z,12.07
2019-05-23T20:02:54.788Z,12.95
2019-05-23T20:05:24.990Z,13.53
2019-05-23T20:07:53.307Z,12.33
2019-05-23T20:10:22.289Z,11.97
2019-05-23T20:12:53.051Z,11.25
2019-05-23T20:15:22.226Z,10.93
2019-05-23T20:17:52.067Z,11.25
2019-05-23T20:20:20.595Z,11.90
2019-05-23T20:22:48.947Z,11.93
2019-05-23T20:25:17.767Z,11.15
2019-05-23T20:27:46.067Z,12.18
2019-05-23T20:30:20.926Z,12.30
2019-05-23T20:32:49.210Z,12.25
2019-05-23T20:35:17.570Z,12.03
2019-05-23T20:37:50.832Z,11.73
2019-05-23T20:40:19.104Z,12.23
2019-05-23T20:42:47.299Z,12.18
2019-05-23T20:45:15.626Z,12.40
2019-05-23T20:47:43.845Z,12.03
2019-05-23T20:50:12.181Z,11.75
2019-05-23T20:52:40.307Z,12.98
2019-05-23T20:55:09.671Z,12.95
2019-05-23T20:57:37.927Z,12.30
2019-05-23T21:00:08.171Z,12.73
2019-05-23T21:02:36.363Z,12.80
2019-05-23T21:05:07.757Z,12.60
2019-05-23T21:07:36.382Z,15.15
2019-05-23T21:10:06.380Z,13.97
2019-05-23T21:12:34.484Z,13.75
2019-05-23T21:15:03.198Z,14.53
2019-05-23T21:17:31.845Z,12.87
2019-05-23T21:20:01.082Z,13.83
2019-05-23T21:22:30.759Z,13.65
2019-05-23T21:24:59.005Z,13.98
2019-05-23T21:27:27.246Z,14.15
2019-05-23T21:29:58.125Z,14.30
2019-05-23T21:32:26.425Z,15.03
2019-05-23T21:34:54.656Z,14.73
2019-05-23T21:37:22.911Z,14.28
2019-05-23T21:39:51.135Z,15.28
2019-05-23T21:42:19.340Z,15.32
2019-05-23T21:44:48.561Z,15.80
2019-05-23T21:47:18.581Z,14.95
2019-05-23T21:49:48.757Z,14.60
2019-05-23T21:52:16.914Z,14.73
2019-05-23T21:54:45.086Z,13.70
2019-05-23T21:57:16.116Z,15.00
2019-05-23T21:59:43.037Z,15.00
2019-05-23T22:02:18.714Z,14.23
2019-05-23T22:04:48.557Z,14.25
2019-05-23T22:07:16.740Z,14.75
2019-05-23T22:09:44.960Z,15.35
2019-05-23T22:12:14.892Z,14.60
2019-05-23T22:14:43.075Z,15.28
2019-05-23T22:17:11.282Z,14.53
2019-05-23T22:19:39.757Z,14.55
2019-05-23T22:22:08.271Z,15.10
2019-05-23T22:24:36.448Z,14.43
2019-05-23T22:27:06.371Z,15.65
2019-05-23T22:29:34.569Z,14.63
2019-05-23T22:32:03.718Z,15.00
2019-05-23T22:34:51.892Z,15.40
2019-05-23T22:37:21.866Z,15.50
2019-05-23T22:39:50.150Z,15.30
2019-05-23T22:42:18.864Z,15.43
2019-05-23T22:44:48.746Z,16.00
2019-05-23T22:47:17.071Z,15.55
2019-05-23T22:49:45.156Z,16.45
2019-05-23T22:52:13.406Z,15.60
2019-05-23T22:54:41.495Z,16.27
2019-05-23T22:57:09.836Z,17.37
2019-05-23T22:59:37.973Z,17.70
2019-05-23T23:02:08.077Z,17.60
2019-05-23T23:04:36.162Z,18.45
2019-05-23T23:07:04.366Z,17.30
2019-05-23T23:09:32.475Z,17.40
2019-05-23T23:12:00.911Z,18.20
2019-05-23T23:14:29.100Z,19.63
2019-05-23T23:16:57.401Z,20.08
2019-05-23T23:19:26.794Z,19.80
2019-05-23T23:21:55.019Z,20.57
2019-05-23T23:24:23.529Z,19.63
2019-05-23T23:26:51.741Z,21.07
2019-05-23T23:29:19.941Z,22.13
2019-05-23T23:31:48.111Z,22.70
2019-05-23T23:34:16.232Z,22.90
2019-05-23T23:36:44.379Z,22.30
2019-05-23T23:39:12.654Z,23.25
2019-05-23T23:41:42.386Z,24.02
2019-05-23T23:44:11.495Z,23.40
2019-05-23T23:46:58.401Z,24.75
2019-05-23T23:49:45.579Z,28.05
2019-05-23T23:52:31.911Z,28.05
2019-05-23T23:55:18.367Z,29.87
2019-05-23T23:58:01.171Z,29.48
